sensor_id;sensor_type;location;lat;lon;timestamp;P1;durP1;ratioP1;P2;durP2;ratioP2
80219;SDS011;70247;37.958;23.722;2023-06-19T00:01:56;23.23;;;14.85;;
80219;SDS011;70247;37.958;23.722;2023-06-19T00:04:21;26.50;;;14.85;;
80219;SDS011;70247;37.958;23.722;2023-06-19T00:06:47;21.77;;;14.98;;
80219;SDS011;70247;37.958;23.722;2023-06-19T00:09:13;21.33;;;14.07;;
80219;SDS011;70247;37.958;23.722;2023-06-19T00:11:39;16.98;;;13.55;;
80219;SDS011;70247;37.958;23.722;2023-06-19T00:14:05;18.00;;;13.32;;
80219;SDS011;70247;37.958;23.722;2023-06-19T00:16:31;20.17;;;13.68;;
80219;SDS011;70247;37.958;23.722;2023-06-19T00:18:57;20.83;;;13.48;;
80219;SDS011;70247;37.958;23.722;2023-06-19T00:21:23;16.50;;;12.02;;
80219;SDS011;70247;37.958;23.722;2023-06-19T00:23:50;21.20;;;12.30;;
80219;SDS011;70247;37.958;23.722;2023-06-19T00:26:19;17.85;;;12.20;;
80219;SDS011;70247;37.958;23.722;2023-06-19T00:28:47;19.58;;;12.52;;
80219;SDS011;70247;37.958;23.722;2023-06-19T00:31:14;15.90;;;13.00;;
80219;SDS011;70247;37.958;23.722;2023-06-19T00:33:41;16.30;;;12.52;;
80219;SDS011;70247;37.958;23.722;2023-06-19T00:36:11;15.27;;;12.25;;
80219;SDS011;70247;37.958;23.722;2023-06-19T00:38:40;17.25;;;12.75;;
80219;SDS011;70247;37.958;23.722;2023-06-19T00:41:06;15.98;;;13.30;;
80219;SDS011;70247;37.958;23.722;2023-06-19T00:43:32;16.10;;;12.82;;
80219;SDS011;70247;37.958;23.722;2023-06-19T00:45:58;16.50;;;13.32;;
80219;SDS011;70247;37.958;23.722;2023-06-19T00:48:26;20.02;;;13.98;;
80219;SDS011;70247;37.958;23.722;2023-06-19T00:50:53;19.70;;;12.40;;
80219;SDS011;70247;37.958;23.722;2023-06-19T00:53:21;15.27;;;11.77;;
80219;SDS011;70247;37.958;23.722;2023-06-19T00:55:48;17.75;;;13.25;;
80219;SDS011;70247;37.958;23.722;2023-06-19T00:58:16;17.52;;;12.40;;
80219;SDS011;70247;37.958;23.722;2023-06-19T01:00:43;18.55;;;13.82;;
80219;SDS011;70247;37.958;23.722;2023-06-19T01:03:09;18.00;;;12.45;;
80219;SDS011;70247;37.958;23.722;2023-06-19T01:05:34;19.13;;;12.68;;
80219;SDS011;70247;37.958;23.722;2023-06-19T01:10:57;18.80;;;13.73;;
80219;SDS011;70247;37.958;23.722;2023-06-19T01:16:12;20.33;;;13.30;;
80219;SDS011;70247;37.958;23.722;2023-06-19T01:18:39;21.38;;;14.63;;
80219;SDS011;70247;37.958;23.722;2023-06-19T01:21:23;22.35;;;13.63;;
80219;SDS011;70247;37.958;23.722;2023-06-19T01:23:49;18.35;;;13.35;;
80219;SDS011;70247;37.958;23.722;2023-06-19T01:26:17;23.52;;;13.75;;
80219;SDS011;70247;37.958;23.722;2023-06-19T01:28:45;19.58;;;13.43;;
80219;SDS011;70247;37.958;23.722;2023-06-19T01:31:20;24.33;;;15.10;;
80219;SDS011;70247;37.958;23.722;2023-06-19T01:33:48;19.55;;;14.38;;
80219;SDS011;70247;37.958;23.722;2023-06-19T01:36:17;19.65;;;13.52;;
80219;SDS011;70247;37.958;23.722;2023-06-19T01:38:44;21.10;;;12.98;;
80219;SDS011;70247;37.958;23.722;2023-06-19T01:41:12;19.23;;;13.00;;
80219;SDS011;70247;37.958;23.722;2023-06-19T01:43:40;18.20;;;13.20;;
80219;SDS011;70247;37.958;23.722;2023-06-19T01:46:07;19.25;;;13.10;;
80219;SDS011;70247;37.958;23.722;2023-06-19T01:48:34;14.88;;;13.02;;
80219;SDS011;70247;37.958;23.722;2023-06-19T01:51:04;19.92;;;12.80;;
80219;SDS011;70247;37.958;23.722;2023-06-19T01:53:30;20.00;;;13.15;;
80219;SDS011;70247;37.958;23.722;2023-06-19T01:55:57;20.15;;;13.93;;
80219;SDS011;70247;37.958;23.722;2023-06-19T01:58:26;25.02;;;14.70;;
80219;SDS011;70247;37.958;23.722;2023-06-19T02:00:52;23.63;;;14.20;;
80219;SDS011;70247;37.958;23.722;2023-06-19T02:03:17;22.05;;;14.48;;
80219;SDS011;70247;37.958;23.722;2023-06-19T02:05:43;20.25;;;15.07;;
80219;SDS011;70247;37.958;23.722;2023-06-19T02:08:09;18.92;;;14.02;;
80219;SDS011;70247;37.958;23.722;2023-06-19T02:10:35;20.30;;;14.05;;
80219;SDS011;70247;37.958;23.722;2023-06-19T02:13:00;18.52;;;13.77;;
80219;SDS011;70247;37.958;23.722;2023-06-19T02:15:26;17.70;;;13.75;;
80219;SDS011;70247;37.958;23.722;2023-06-19T02:17:53;16.88;;;13.48;;
80219;SDS011;70247;37.958;23.722;2023-06-19T02:20:20;17.83;;;12.85;;
80219;SDS011;70247;37.958;23.722;2023-06-19T02:22:47;24.30;;;13.52;;
80219;SDS011;70247;37.958;23.722;2023-06-19T02:25:13;20.42;;;14.32;;
80219;SDS011;70247;37.958;23.722;2023-06-19T02:27:38;30.52;;;14.43;;
80219;SDS011;70247;37.958;23.722;2023-06-19T02:30:04;25.52;;;15.00;;
80219;SDS011;70247;37.958;23.722;2023-06-19T02:32:30;27.17;;;14.70;;
80219;SDS011;70247;37.958;23.722;2023-06-19T02:34:57;21.67;;;13.48;;
80219;SDS011;70247;37.958;23.722;2023-06-19T02:37:23;25.52;;;13.75;;
80219;SDS011;70247;37.958;23.722;2023-06-19T02:39:49;24.25;;;14.32;;
80219;SDS011;70247;37.958;23.722;2023-06-19T02:42:14;21.23;;;13.73;;
80219;SDS011;70247;37.958;23.722;2023-06-19T02:44:40;21.13;;;13.13;;
80219;SDS011;70247;37.958;23.722;2023-06-19T02:47:07;19.63;;;13.80;;
80219;SDS011;70247;37.958;23.722;2023-06-19T02:49:33;18.58;;;13.35;;
80219;SDS011;70247;37.958;23.722;2023-06-19T02:51:59;20.77;;;15.13;;
80219;SDS011;70247;37.958;23.722;2023-06-19T02:54:25;21.65;;;13.75;;
80219;SDS011;70247;37.958;23.722;2023-06-19T02:56:51;22.33;;;13.82;;
80219;SDS011;70247;37.958;23.722;2023-06-19T02:59:16;19.50;;;14.23;;
80219;SDS011;70247;37.958;23.722;2023-06-19T03:01:42;22.00;;;13.90;;
80219;SDS011;70247;37.958;23.722;2023-06-19T03:04:09;23.27;;;14.35;;
80219;SDS011;70247;37.958;23.722;2023-06-19T03:06:35;26.52;;;15.32;;
80219;SDS011;70247;37.958;23.722;2023-06-19T03:09:08;24.02;;;14.23;;
80219;SDS011;70247;37.958;23.722;2023-06-19T03:11:40;23.85;;;14.55;;
80219;SDS011;70247;37.958;23.722;2023-06-19T03:14:06;22.02;;;13.63;;
80219;SDS011;70247;37.958;23.722;2023-06-19T03:16:35;19.52;;;14.57;;
80219;SDS011;70247;37.958;23.722;2023-06-19T03:19:01;27.55;;;15.10;;
80219;SDS011;70247;37.958;23.722;2023-06-19T03:21:27;20.45;;;14.27;;
80219;SDS011;70247;37.958;23.722;2023-06-19T03:23:53;22.33;;;14.98;;
80219;SDS011;70247;37.958;23.722;2023-06-19T03:26:19;22.80;;;14.65;;
80219;SDS011;70247;37.958;23.722;2023-06-19T03:28:46;25.75;;;14.88;;
80219;SDS011;70247;37.958;23.722;2023-06-19T03:31:12;24.17;;;14.35;;
80219;SDS011;70247;37.958;23.722;2023-06-19T03:33:38;23.08;;;14.52;;
80219;SDS011;70247;37.958;23.722;2023-06-19T03:36:04;24.73;;;14.82;;
80219;SDS011;70247;37.958;23.722;2023-06-19T03:38:30;21.70;;;14.02;;
80219;SDS011;70247;37.958;23.722;2023-06-19T03:40:56;23.77;;;14.10;;
80219;SDS011;70247;37.958;23.722;2023-06-19T03:43:22;24.00;;;13.80;;
80219;SDS011;70247;37.958;23.722;2023-06-19T03:45:48;34.90;;;15.75;;
80219;SDS011;70247;37.958;23.722;2023-06-19T03:48:14;28.02;;;15.20;;
80219;SDS011;70247;37.958;23.722;2023-06-19T03:50:41;22.65;;;13.57;;
80219;SDS011;70247;37.958;23.722;2023-06-19T03:53:07;21.50;;;14.20;;
80219;SDS011;70247;37.958;23.722;2023-06-19T03:55:33;22.67;;;14.27;;
80219;SDS011;70247;37.958;23.722;2023-06-19T03:57:58;25.50;;;14.45;;
80219;SDS011;70247;37.958;23.722;2023-06-19T04:00:24;21.90;;;13.70;;
80219;SDS011;70247;37.958;23.722;2023-06-19T04:02:50;31.17;;;14.80;;
80219;SDS011;70247;37.958;23.722;2023-06-19T04:05:16;25.73;;;14.38;;
80219;SDS011;70247;37.958;23.722;2023-06-19T04:07:42;23.58;;;14.88;;
80219;SDS011;70247;37.958;23.722;2023-06-19T04:10:08;27.13;;;15.32;;
80219;SDS011;70247;37.958;23.722;2023-06-19T04:12:34;24.40;;;15.68;;
80219;SDS011;70247;37.958;23.722;2023-06-19T04:14:59;27.10;;;15.32;;
80219;SDS011;70247;37.958;23.722;2023-06-19T04:17:25;27.98;;;15.55;;
80219;SDS011;70247;37.958;23.722;2023-06-19T04:19:51;26.17;;;16.23;;
80219;SDS011;70247;37.958;23.722;2023-06-19T04:22:16;29.35;;;15.32;;
80219;SDS011;70247;37.958;23.722;2023-06-19T04:24:42;23.50;;;14.23;;
80219;SDS011;70247;37.958;23.722;2023-06-19T04:27:08;22.13;;;14.32;;
80219;SDS011;70247;37.958;23.722;2023-06-19T04:29:34;26.17;;;14.77;;
80219;SDS011;70247;37.958;23.722;2023-06-19T04:32:00;25.42;;;13.93;;
80219;SDS011;70247;37.958;23.722;2023-06-19T04:34:28;27.45;;;14.52;;
80219;SDS011;70247;37.958;23.722;2023-06-19T04:36:54;25.10;;;14.18;;
80219;SDS011;70247;37.958;23.722;2023-06-19T04:39:23;21.00;;;14.57;;
80219;SDS011;70247;37.958;23.722;2023-06-19T04:41:49;21.95;;;13.57;;
80219;SDS011;70247;37.958;23.722;2023-06-19T04:44:15;21.35;;;13.52;;
80219;SDS011;70247;37.958;23.722;2023-06-19T04:46:41;17.95;;;13.27;;
80219;SDS011;70247;37.958;23.722;2023-06-19T04:49:09;21.92;;;13.10;;
80219;SDS011;70247;37.958;23.722;2023-06-19T04:51:35;17.50;;;13.20;;
80219;SDS011;70247;37.958;23.722;2023-06-19T04:54:01;20.05;;;13.93;;
80219;SDS011;70247;37.958;23.722;2023-06-19T04:56:28;19.65;;;15.10;;
80219;SDS011;70247;37.958;23.722;2023-06-19T04:58:54;18.48;;;14.60;;
80219;SDS011;70247;37.958;23.722;2023-06-19T05:01:24;21.83;;;14.32;;
80219;SDS011;70247;37.958;23.722;2023-06-19T05:03:54;19.60;;;14.57;;
80219;SDS011;70247;37.958;23.722;2023-06-19T05:06:24;18.85;;;12.30;;
80219;SDS011;70247;37.958;23.722;2023-06-19T05:08:51;28.63;;;12.95;;
80219;SDS011;70247;37.958;23.722;2023-06-19T05:11:21;19.10;;;13.95;;
80219;SDS011;70247;37.958;23.722;2023-06-19T05:13:47;20.88;;;12.57;;
80219;SDS011;70247;37.958;23.722;2023-06-19T05:16:12;23.80;;;12.85;;
80219;SDS011;70247;37.958;23.722;2023-06-19T05:18:41;23.23;;;12.10;;
80219;SDS011;70247;37.958;23.722;2023-06-19T05:21:08;19.40;;;11.05;;
80219;SDS011;70247;37.958;23.722;2023-06-19T05:23:34;16.70;;;10.98;;
80219;SDS011;70247;37.958;23.722;2023-06-19T05:26:00;15.43;;;10.38;;
80219;SDS011;70247;37.958;23.722;2023-06-19T05:28:25;19.25;;;10.77;;
80219;SDS011;70247;37.958;23.722;2023-06-19T05:30:51;15.90;;;10.80;;
80219;SDS011;70247;37.958;23.722;2023-06-19T05:33:17;24.42;;;10.90;;
80219;SDS011;70247;37.958;23.722;2023-06-19T05:35:43;17.70;;;10.82;;
80219;SDS011;70247;37.958;23.722;2023-06-19T05:38:16;21.67;;;10.88;;
80219;SDS011;70247;37.958;23.722;2023-06-19T05:40:42;23.50;;;11.10;;
80219;SDS011;70247;37.958;23.722;2023-06-19T05:43:07;14.80;;;8.50;;
80219;SDS011;70247;37.958;23.722;2023-06-19T05:45:33;22.00;;;10.10;;
80219;SDS011;70247;37.958;23.722;2023-06-19T05:47:59;12.35;;;8.50;;
80219;SDS011;70247;37.958;23.722;2023-06-19T05:50:25;17.85;;;8.77;;
80219;SDS011;70247;37.958;23.722;2023-06-19T05:52:51;15.48;;;8.35;;
80219;SDS011;70247;37.958;23.722;2023-06-19T05:55:16;11.98;;;8.18;;
80219;SDS011;70247;37.958;23.722;2023-06-19T05:57:42;13.40;;;8.13;;
80219;SDS011;70247;37.958;23.722;2023-06-19T06:00:08;15.10;;;8.38;;
80219;SDS011;70247;37.958;23.722;2023-06-19T06:02:39;15.48;;;8.05;;
80219;SDS011;70247;37.958;23.722;2023-06-19T06:05:06;18.73;;;9.02;;
80219;SDS011;70247;37.958;23.722;2023-06-19T06:07:33;14.95;;;7.90;;
80219;SDS011;70247;37.958;23.722;2023-06-19T06:10:00;19.05;;;8.02;;
80219;SDS011;70247;37.958;23.722;2023-06-19T06:12:25;12.57;;;7.60;;
80219;SDS011;70247;37.958;23.722;2023-06-19T06:14:51;13.65;;;7.20;;
80219;SDS011;70247;37.958;23.722;2023-06-19T06:17:17;11.32;;;8.13;;
80219;SDS011;70247;37.958;23.722;2023-06-19T06:19:43;12.20;;;7.93;;
80219;SDS011;70247;37.958;23.722;2023-06-19T06:22:08;14.68;;;7.38;;
80219;SDS011;70247;37.958;23.722;2023-06-19T06:24:34;13.48;;;7.93;;
80219;SDS011;70247;37.958;23.722;2023-06-19T06:27:00;11.07;;;7.78;;
80219;SDS011;70247;37.958;23.722;2023-06-19T06:29:25;19.20;;;7.93;;
80219;SDS011;70247;37.958;23.722;2023-06-19T06:31:51;13.65;;;7.47;;
80219;SDS011;70247;37.958;23.722;2023-06-19T06:34:27;10.85;;;7.55;;
80219;SDS011;70247;37.958;23.722;2023-06-19T06:36:53;14.60;;;8.10;;
80219;SDS011;70247;37.958;23.722;2023-06-19T06:39:19;11.10;;;7.13;;
80219;SDS011;70247;37.958;23.722;2023-06-19T06:41:45;9.45;;;7.43;;
80219;SDS011;70247;37.958;23.722;2023-06-19T06:44:11;17.08;;;7.38;;
80219;SDS011;70247;37.958;23.722;2023-06-19T06:46:38;11.70;;;7.50;;
80219;SDS011;70247;37.958;23.722;2023-06-19T06:49:04;11.70;;;7.15;;
80219;SDS011;70247;37.958;23.722;2023-06-19T06:51:31;13.98;;;7.95;;
80219;SDS011;70247;37.958;23.722;2023-06-19T06:53:56;16.20;;;7.13;;
80219;SDS011;70247;37.958;23.722;2023-06-19T06:56:22;11.52;;;7.65;;
80219;SDS011;70247;37.958;23.722;2023-06-19T06:58:50;9.52;;;6.68;;
80219;SDS011;70247;37.958;23.722;2023-06-19T07:01:16;16.50;;;7.93;;
80219;SDS011;70247;37.958;23.722;2023-06-19T07:03:43;12.38;;;6.97;;
80219;SDS011;70247;37.958;23.722;2023-06-19T07:06:10;24.25;;;7.82;;
80219;SDS011;70247;37.958;23.722;2023-06-19T07:08:36;18.48;;;7.22;;
80219;SDS011;70247;37.958;23.722;2023-06-19T07:11:06;51.83;;;9.90;;
80219;SDS011;70247;37.958;23.722;2023-06-19T07:13:34;16.35;;;8.27;;
80219;SDS011;70247;37.958;23.722;2023-06-19T07:16:00;13.82;;;7.03;;
80219;SDS011;70247;37.958;23.722;2023-06-19T07:18:27;15.13;;;7.55;;
80219;SDS011;70247;37.958;23.722;2023-06-19T07:20:53;11.15;;;6.82;;
80219;SDS011;70247;37.958;23.722;2023-06-19T07:23:19;12.45;;;7.13;;
80219;SDS011;70247;37.958;23.722;2023-06-19T07:25:48;10.85;;;6.63;;
80219;SDS011;70247;37.958;23.722;2023-06-19T07:28:14;18.80;;;6.65;;
80219;SDS011;70247;37.958;23.722;2023-06-19T07:30:40;9.40;;;6.97;;
80219;SDS011;70247;37.958;23.722;2023-06-19T07:33:06;7.88;;;6.72;;
80219;SDS011;70247;37.958;23.722;2023-06-19T07:35:32;12.68;;;6.90;;
80219;SDS011;70247;37.958;23.722;2023-06-19T07:37:58;11.40;;;7.50;;
80219;SDS011;70247;37.958;23.722;2023-06-19T07:40:23;12.18;;;7.20;;
80219;SDS011;70247;37.958;23.722;2023-06-19T07:42:49;9.60;;;6.70;;
80219;SDS011;70247;37.958;23.722;2023-06-19T07:45:15;12.55;;;7.30;;
80219;SDS011;70247;37.958;23.722;2023-06-19T07:47:41;14.38;;;7.53;;
80219;SDS011;70247;37.958;23.722;2023-06-19T07:50:06;10.75;;;7.03;;
80219;SDS011;70247;37.958;23.722;2023-06-19T07:52:32;10.02;;;6.65;;
80219;SDS011;70247;37.958;23.722;2023-06-19T07:54:59;15.68;;;7.22;;
80219;SDS011;70247;37.958;23.722;2023-06-19T07:57:25;10.70;;;6.65;;
80219;SDS011;70247;37.958;23.722;2023-06-19T07:59:52;9.90;;;6.50;;
80219;SDS011;70247;37.958;23.722;2023-06-19T08:02:19;11.93;;;6.57;;
80219;SDS011;70247;37.958;23.722;2023-06-19T08:04:45;13.10;;;6.50;;
80219;SDS011;70247;37.958;23.722;2023-06-19T08:07:11;8.82;;;6.38;;
80219;SDS011;70247;37.958;23.722;2023-06-19T08:09:37;18.55;;;7.47;;
80219;SDS011;70247;37.958;23.722;2023-06-19T08:12:03;9.52;;;6.88;;
80219;SDS011;70247;37.958;23.722;2023-06-19T08:14:29;9.60;;;6.60;;
80219;SDS011;70247;37.958;23.722;2023-06-19T08:16:55;9.02;;;6.68;;
80219;SDS011;70247;37.958;23.722;2023-06-19T08:19:21;11.27;;;6.30;;
80219;SDS011;70247;37.958;23.722;2023-06-19T08:21:46;11.85;;;6.20;;
80219;SDS011;70247;37.958;23.722;2023-06-19T08:24:12;9.85;;;6.55;;
80219;SDS011;70247;37.958;23.722;2023-06-19T08:26:38;9.52;;;7.07;;
80219;SDS011;70247;37.958;23.722;2023-06-19T08:29:03;10.73;;;5.70;;
80219;SDS011;70247;37.958;23.722;2023-06-19T08:31:29;11.45;;;6.35;;
80219;SDS011;70247;37.958;23.722;2023-06-19T08:33:55;9.23;;;6.15;;
80219;SDS011;70247;37.958;23.722;2023-06-19T08:36:21;8.27;;;6.50;;
80219;SDS011;70247;37.958;23.722;2023-06-19T08:38:47;10.80;;;6.88;;
80219;SDS011;70247;37.958;23.722;2023-06-19T08:41:17;8.73;;;6.43;;
80219;SDS011;70247;37.958;23.722;2023-06-19T08:43:46;8.02;;;6.30;;
80219;SDS011;70247;37.958;23.722;2023-06-19T08:46:15;11.27;;;6.55;;
80219;SDS011;70247;37.958;23.722;2023-06-19T08:48:45;9.82;;;6.78;;
80219;SDS011;70247;37.958;23.722;2023-06-19T08:51:12;9.93;;;7.32;;
80219;SDS011;70247;37.958;23.722;2023-06-19T08:53:45;10.13;;;7.13;;
80219;SDS011;70247;37.958;23.722;2023-06-19T08:56:12;12.43;;;6.53;;
80219;SDS011;70247;37.958;23.722;2023-06-19T08:58:38;9.43;;;6.80;;
80219;SDS011;70247;37.958;23.722;2023-06-19T09:01:04;9.07;;;5.80;;
80219;SDS011;70247;37.958;23.722;2023-06-19T09:03:30;14.25;;;7.40;;
80219;SDS011;70247;37.958;23.722;2023-06-19T09:05:56;11.77;;;6.55;;
80219;SDS011;70247;37.958;23.722;2023-06-19T09:08:23;10.52;;;5.70;;
80219;SDS011;70247;37.958;23.722;2023-06-19T09:11:00;9.20;;;5.50;;
80219;SDS011;70247;37.958;23.722;2023-06-19T09:13:28;8.50;;;5.93;;
80219;SDS011;70247;37.958;23.722;2023-06-19T09:16:01;8.43;;;5.82;;
80219;SDS011;70247;37.958;23.722;2023-06-19T09:18:41;10.45;;;5.90;;
80219;SDS011;70247;37.958;23.722;2023-06-19T09:21:14;14.07;;;6.20;;
80219;SDS011;70247;37.958;23.722;2023-06-19T09:23:41;14.27;;;6.50;;
80219;SDS011;70247;37.958;23.722;2023-06-19T09:26:07;12.95;;;6.50;;
80219;SDS011;70247;37.958;23.722;2023-06-19T09:28:33;10.82;;;5.72;;
80219;SDS011;70247;37.958;23.722;2023-06-19T09:31:02;11.23;;;6.95;;
80219;SDS011;70247;37.958;23.722;2023-06-19T09:33:30;10.57;;;5.90;;
80219;SDS011;70247;37.958;23.722;2023-06-19T09:35:58;13.35;;;5.95;;
80219;SDS011;70247;37.958;23.722;2023-06-19T09:38:25;15.85;;;6.18;;
80219;SDS011;70247;37.958;23.722;2023-06-19T09:40:52;9.50;;;6.03;;
80219;SDS011;70247;37.958;23.722;2023-06-19T09:43:23;10.70;;;6.18;;
80219;SDS011;70247;37.958;23.722;2023-06-19T09:45:50;8.98;;;5.93;;
80219;SDS011;70247;37.958;23.722;2023-06-19T09:48:20;13.15;;;6.63;;
80219;SDS011;70247;37.958;23.722;2023-06-19T09:50:54;10.55;;;6.25;;
80219;SDS011;70247;37.958;23.722;2023-06-19T09:53:25;14.18;;;6.82;;
80219;SDS011;70247;37.958;23.722;2023-06-19T09:55:51;13.82;;;6.57;;
80219;SDS011;70247;37.958;23.722;2023-06-19T09:58:20;14.60;;;6.80;;
80219;SDS011;70247;37.958;23.722;2023-06-19T10:00:46;11.57;;;6.93;;
80219;SDS011;70247;37.958;23.722;2023-06-19T10:03:15;12.88;;;6.75;;
80219;SDS011;70247;37.958;23.722;2023-06-19T10:05:44;10.07;;;6.63;;
80219;SDS011;70247;37.958;23.722;2023-06-19T10:08:09;12.65;;;6.70;;
80219;SDS011;70247;37.958;23.722;2023-06-19T10:10:35;14.07;;;6.60;;
80219;SDS011;70247;37.958;23.722;2023-06-19T10:13:11;9.18;;;6.50;;
80219;SDS011;70247;37.958;23.722;2023-06-19T10:15:42;15.55;;;7.60;;
80219;SDS011;70247;37.958;23.722;2023-06-19T10:18:12;8.75;;;6.47;;
80219;SDS011;70247;37.958;23.722;2023-06-19T10:20:42;9.98;;;6.85;;
80219;SDS011;70247;37.958;23.722;2023-06-19T10:25:43;11.23;;;6.75;;
80219;SDS011;70247;37.958;23.722;2023-06-19T10:31:11;10.05;;;6.95;;
80219;SDS011;70247;37.958;23.722;2023-06-19T10:33:36;9.93;;;6.55;;
80219;SDS011;70247;37.958;23.722;2023-06-19T10:36:18;10.10;;;6.93;;
80219;SDS011;70247;37.958;23.722;2023-06-19T10:38:46;9.70;;;6.55;;
80219;SDS011;70247;37.958;23.722;2023-06-19T10:41:17;12.13;;;6.68;;
80219;SDS011;70247;37.958;23.722;2023-06-19T10:43:55;10.77;;;6.63;;
80219;SDS011;70247;37.958;23.722;2023-06-19T10:46:28;8.95;;;6.85;;
80219;SDS011;70247;37.958;23.722;2023-06-19T10:48:57;10.70;;;7.00;;
80219;SDS011;70247;37.958;23.722;2023-06-19T10:51:28;13.93;;;6.90;;
80219;SDS011;70247;37.958;23.722;2023-06-19T10:53:55;9.85;;;6.95;;
80219;SDS011;70247;37.958;23.722;2023-06-19T10:56:22;15.60;;;7.40;;
80219;SDS011;70247;37.958;23.722;2023-06-19T10:58:48;15.40;;;6.65;;
80219;SDS011;70247;37.958;23.722;2023-06-19T11:01:21;11.07;;;7.00;;
80219;SDS011;70247;37.958;23.722;2023-06-19T11:03:47;7.55;;;6.75;;
80219;SDS011;70247;37.958;23.722;2023-06-19T11:06:19;11.60;;;6.90;;
80219;SDS011;70247;37.958;23.722;2023-06-19T11:11:16;11.05;;;6.88;;
80219;SDS011;70247;37.958;23.722;2023-06-19T11:13:42;13.25;;;7.40;;
80219;SDS011;70247;37.958;23.722;2023-06-19T11:16:08;11.98;;;7.13;;
80219;SDS011;70247;37.958;23.722;2023-06-19T11:18:34;8.68;;;7.25;;
80219;SDS011;70247;37.958;23.722;2023-06-19T11:20:59;8.57;;;7.25;;
80219;SDS011;70247;37.958;23.722;2023-06-19T11:23:29;9.65;;;7.35;;
80219;SDS011;70247;37.958;23.722;2023-06-19T11:26:04;11.63;;;7.78;;
80219;SDS011;70247;37.958;23.722;2023-06-19T11:28:31;13.73;;;8.30;;
80219;SDS011;70247;37.958;23.722;2023-06-19T11:31:01;11.02;;;6.93;;
80219;SDS011;70247;37.958;23.722;2023-06-19T11:33:30;9.85;;;7.38;;
80219;SDS011;70247;37.958;23.722;2023-06-19T11:36:01;11.30;;;7.75;;
80219;SDS011;70247;37.958;23.722;2023-06-19T11:38:28;10.88;;;7.10;;
80219;SDS011;70247;37.958;23.722;2023-06-19T11:40:54;8.60;;;7.45;;
80219;SDS011;70247;37.958;23.722;2023-06-19T11:43:31;10.00;;;7.13;;
80219;SDS011;70247;37.958;23.722;2023-06-19T11:46:04;8.55;;;6.70;;
80219;SDS011;70247;37.958;23.722;2023-06-19T11:48:31;8.45;;;7.32;;
80219;SDS011;70247;37.958;23.722;2023-06-19T11:50:57;11.20;;;6.88;;
80219;SDS011;70247;37.958;23.722;2023-06-19T11:53:23;10.05;;;7.43;;
80219;SDS011;70247;37.958;23.722;2023-06-19T11:55:52;9.40;;;7.38;;
80219;SDS011;70247;37.958;23.722;2023-06-19T11:58:18;11.10;;;7.63;;
80219;SDS011;70247;37.958;23.722;2023-06-19T12:00:47;11.18;;;7.53;;
80219;SDS011;70247;37.958;23.722;2023-06-19T12:03:13;14.02;;;7.55;;
80219;SDS011;70247;37.958;23.722;2023-06-19T12:05:39;9.50;;;7.88;;
80219;SDS011;70247;37.958;23.722;2023-06-19T12:08:04;11.20;;;7.43;;
80219;SDS011;70247;37.958;23.722;2023-06-19T12:10:31;16.17;;;7.93;;
80219;SDS011;70247;37.958;23.722;2023-06-19T12:12:58;9.30;;;7.47;;
80219;SDS011;70247;37.958;23.722;2023-06-19T12:15:24;12.45;;;7.57;;
80219;SDS011;70247;37.958;23.722;2023-06-19T12:17:50;9.98;;;7.40;;
80219;SDS011;70247;37.958;23.722;2023-06-19T12:20:16;9.77;;;6.80;;
80219;SDS011;70247;37.958;23.722;2023-06-19T12:22:42;10.70;;;6.72;;
80219;SDS011;70247;37.958;23.722;2023-06-19T12:25:08;15.25;;;6.53;;
80219;SDS011;70247;37.958;23.722;2023-06-19T12:27:35;13.15;;;6.53;;
80219;SDS011;70247;37.958;23.722;2023-06-19T12:30:02;14.30;;;7.57;;
80219;SDS011;70247;37.958;23.722;2023-06-19T12:32:29;9.82;;;6.53;;
80219;SDS011;70247;37.958;23.722;2023-06-19T12:34:54;10.43;;;7.40;;
80219;SDS011;70247;37.958;23.722;2023-06-19T12:37:20;10.75;;;6.85;;
80219;SDS011;70247;37.958;23.722;2023-06-19T12:39:46;9.68;;;6.75;;
80219;SDS011;70247;37.958;23.722;2023-06-19T12:42:13;11.32;;;7.60;;
80219;SDS011;70247;37.958;23.722;2023-06-19T12:44:39;9.63;;;7.03;;
80219;SDS011;70247;37.958;23.722;2023-06-19T12:47:05;9.93;;;6.85;;
80219;SDS011;70247;37.958;23.722;2023-06-19T12:49:31;12.10;;;6.97;;
80219;SDS011;70247;37.958;23.722;2023-06-19T12:51:57;11.27;;;6.85;;
80219;SDS011;70247;37.958;23.722;2023-06-19T12:54:23;12.73;;;7.22;;
80219;SDS011;70247;37.958;23.722;2023-06-19T12:56:49;12.23;;;7.75;;
80219;SDS011;70247;37.958;23.722;2023-06-19T12:59:15;10.20;;;7.00;;
80219;SDS011;70247;37.958;23.722;2023-06-19T13:01:41;10.48;;;7.25;;
80219;SDS011;70247;37.958;23.722;2023-06-19T13:04:07;10.15;;;7.07;;
80219;SDS011;70247;37.958;23.722;2023-06-19T13:06:33;11.55;;;7.75;;
80219;SDS011;70247;37.958;23.722;2023-06-19T13:09:00;12.65;;;7.53;;
80219;SDS011;70247;37.958;23.722;2023-06-19T13:11:27;13.13;;;7.60;;
80219;SDS011;70247;37.958;23.722;2023-06-19T13:13:53;12.38;;;7.38;;
80219;SDS011;70247;37.958;23.722;2023-06-19T13:16:18;9.98;;;6.60;;
80219;SDS011;70247;37.958;23.722;2023-06-19T13:18:44;14.07;;;7.22;;
80219;SDS011;70247;37.958;23.722;2023-06-19T13:21:11;10.32;;;7.00;;
80219;SDS011;70247;37.958;23.722;2023-06-19T13:23:37;12.10;;;7.43;;
80219;SDS011;70247;37.958;23.722;2023-06-19T13:26:04;10.95;;;7.40;;
80219;SDS011;70247;37.958;23.722;2023-06-19T13:28:31;11.80;;;7.70;;
80219;SDS011;70247;37.958;23.722;2023-06-19T13:30:56;16.02;;;7.50;;
80219;SDS011;70247;37.958;23.722;2023-06-19T13:33:22;14.30;;;7.65;;
80219;SDS011;70247;37.958;23.722;2023-06-19T13:35:48;15.48;;;7.47;;
80219;SDS011;70247;37.958;23.722;2023-06-19T13:38:14;8.85;;;7.30;;
80219;SDS011;70247;37.958;23.722;2023-06-19T13:40:40;10.52;;;7.68;;
80219;SDS011;70247;37.958;23.722;2023-06-19T13:43:06;11.27;;;7.30;;
80219;SDS011;70247;37.958;23.722;2023-06-19T13:45:32;10.95;;;6.95;;
80219;SDS011;70247;37.958;23.722;2023-06-19T13:47:59;8.02;;;6.90;;
80219;SDS011;70247;37.958;23.722;2023-06-19T13:50:25;8.15;;;6.93;;
80219;SDS011;70247;37.958;23.722;2023-06-19T13:52:52;13.77;;;7.30;;
80219;SDS011;70247;37.958;23.722;2023-06-19T13:55:18;11.85;;;7.70;;
80219;SDS011;70247;37.958;23.722;2023-06-19T13:57:44;12.25;;;7.57;;
80219;SDS011;70247;37.958;23.722;2023-06-19T14:00:10;11.88;;;7.47;;
80219;SDS011;70247;37.958;23.722;2023-06-19T14:02:37;9.98;;;7.97;;
80219;SDS011;70247;37.958;23.722;2023-06-19T14:05:06;12.38;;;8.20;;
80219;SDS011;70247;37.958;23.722;2023-06-19T14:07:33;11.38;;;8.70;;
80219;SDS011;70247;37.958;23.722;2023-06-19T14:10:00;12.52;;;9.00;;
80219;SDS011;70247;37.958;23.722;2023-06-19T14:12:27;13.75;;;8.48;;
80219;SDS011;70247;37.958;23.722;2023-06-19T14:14:52;10.73;;;8.93;;
80219;SDS011;70247;37.958;23.722;2023-06-19T14:17:18;13.57;;;9.48;;
80219;SDS011;70247;37.958;23.722;2023-06-19T14:19:45;10.52;;;8.88;;
80219;SDS011;70247;37.958;23.722;2023-06-19T14:22:11;14.25;;;8.82;;
80219;SDS011;70247;37.958;23.722;2023-06-19T14:24:37;14.25;;;9.13;;
80219;SDS011;70247;37.958;23.722;2023-06-19T14:27:03;9.63;;;7.75;;
80219;SDS011;70247;37.958;23.722;2023-06-19T14:29:29;11.25;;;8.50;;
80219;SDS011;70247;37.958;23.722;2023-06-19T14:31:55;12.40;;;8.20;;